sensor_id;sensor_type;location;lat;lon;timestamp;P1;durP1;ratioP1;P2;durP2;ratioP2
15645;SDS011;7922;43.622;1.476;2022-12-24T00:00:54;15.67;;;14.07;;
15645;SDS011;7922;43.622;1.476;2022-12-24T00:03:20;16.27;;;14.57;;
15645;SDS011;7922;43.622;1.476;2022-12-24T00:05:45;18.40;;;14.90;;
15645;SDS011;7922;43.622;1.476;2022-12-24T00:08:10;19.83;;;15.30;;
15645;SDS011;7922;43.622;1.476;2022-12-24T00:10:36;18.07;;;15.57;;
15645;SDS011;7922;43.622;1.476;2022-12-24T00:13:01;21.07;;;17.03;;
15645;SDS011;7922;43.622;1.476;2022-12-24T00:15:26;21.30;;;17.20;;
15645;SDS011;7922;43.622;1.476;2022-12-24T00:17:51;21.50;;;17.47;;
15645;SDS011;7922;43.622;1.476;2022-12-24T00:20:17;21.47;;;16.40;;
15645;SDS011;7922;43.622;1.476;2022-12-24T00:22:42;19.10;;;16.90;;
15645;SDS011;7922;43.622;1.476;2022-12-24T00:25:07;22.07;;;16.47;;
15645;SDS011;7922;43.622;1.476;2022-12-24T00:27:33;18.10;;;15.80;;
15645;SDS011;7922;43.622;1.476;2022-12-24T00:29:58;21.20;;;15.73;;
15645;SDS011;7922;43.622;1.476;2022-12-24T00:32:23;21.20;;;16.90;;
15645;SDS011;7922;43.622;1.476;2022-12-24T00:34:49;19.27;;;16.07;;
15645;SDS011;7922;43.622;1.476;2022-12-24T00:37:14;18.47;;;15.43;;
15645;SDS011;7922;43.622;1.476;2022-12-24T00:39:39;18.13;;;16.23;;
15645;SDS011;7922;43.622;1.476;2022-12-24T00:42:04;18.23;;;15.60;;
15645;SDS011;7922;43.622;1.476;2022-12-24T00:44:30;20.27;;;15.80;;
15645;SDS011;7922;43.622;1.476;2022-12-24T00:46:55;20.93;;;16.10;;
15645;SDS011;7922;43.622;1.476;2022-12-24T00:49:20;18.57;;;15.47;;
15645;SDS011;7922;43.622;1.476;2022-12-24T00:51:46;16.70;;;14.67;;
15645;SDS011;7922;43.622;1.476;2022-12-24T00:54:11;18.30;;;16.13;;
15645;SDS011;7922;43.622;1.476;2022-12-24T00:56:37;18.33;;;15.43;;
15645;SDS011;7922;43.622;1.476;2022-12-24T00:59:03;17.63;;;15.47;;
15645;SDS011;7922;43.622;1.476;2022-12-24T01:01:28;16.80;;;14.60;;
15645;SDS011;7922;43.622;1.476;2022-12-24T01:03:53;17.83;;;14.27;;
15645;SDS011;7922;43.622;1.476;2022-12-24T01:06:19;19.27;;;16.37;;
15645;SDS011;7922;43.622;1.476;2022-12-24T01:08:45;18.10;;;16.03;;
15645;SDS011;7922;43.622;1.476;2022-12-24T01:11:14;18.47;;;14.67;;
15645;SDS011;7922;43.622;1.476;2022-12-24T01:13:39;17.10;;;14.50;;
15645;SDS011;7922;43.622;1.476;2022-12-24T01:16:12;20.70;;;14.97;;
15645;SDS011;7922;43.622;1.476;2022-12-24T01:18:38;19.73;;;14.93;;
15645;SDS011;7922;43.622;1.476;2022-12-24T01:21:04;19.30;;;14.83;;
15645;SDS011;7922;43.622;1.476;2022-12-24T01:23:29;19.20;;;15.00;;
15645;SDS011;7922;43.622;1.476;2022-12-24T01:25:58;18.70;;;14.63;;
15645;SDS011;7922;43.622;1.476;2022-12-24T01:28:24;20.10;;;16.63;;
15645;SDS011;7922;43.622;1.476;2022-12-24T01:30:49;17.83;;;15.87;;
15645;SDS011;7922;43.622;1.476;2022-12-24T01:33:14;20.60;;;16.73;;
15645;SDS011;7922;43.622;1.476;2022-12-24T01:35:40;22.00;;;17.10;;
15645;SDS011;7922;43.622;1.476;2022-12-24T01:38:06;22.33;;;16.63;;
15645;SDS011;7922;43.622;1.476;2022-12-24T01:40:32;18.47;;;15.27;;
15645;SDS011;7922;43.622;1.476;2022-12-24T01:42:58;19.17;;;14.40;;
15645;SDS011;7922;43.622;1.476;2022-12-24T01:48:01;17.43;;;14.37;;
15645;SDS011;7922;43.622;1.476;2022-12-24T01:50:27;18.53;;;14.20;;
15645;SDS011;7922;43.622;1.476;2022-12-24T01:52:53;15.20;;;13.67;;
15645;SDS011;7922;43.622;1.476;2022-12-24T01:55:18;19.67;;;14.97;;
15645;SDS011;7922;43.622;1.476;2022-12-24T01:57:48;16.53;;;14.17;;
15645;SDS011;7922;43.622;1.476;2022-12-24T02:00:19;15.53;;;13.83;;
15645;SDS011;7922;43.622;1.476;2022-12-24T02:02:45;19.17;;;13.80;;
15645;SDS011;7922;43.622;1.476;2022-12-24T02:05:17;15.67;;;13.23;;
15645;SDS011;7922;43.622;1.476;2022-12-24T02:07:47;14.50;;;12.90;;
15645;SDS011;7922;43.622;1.476;2022-12-24T02:10:13;17.23;;;13.93;;
15645;SDS011;7922;43.622;1.476;2022-12-24T02:12:39;17.20;;;13.67;;
15645;SDS011;7922;43.622;1.476;2022-12-24T02:15:09;14.73;;;13.13;;
15645;SDS011;7922;43.622;1.476;2022-12-24T02:25:40;13.97;;;12.40;;
15645;SDS011;7922;43.622;1.476;2022-12-24T02:31:43;16.87;;;11.57;;
15645;SDS011;7922;43.622;1.476;2022-12-24T02:34:18;14.97;;;12.43;;
15645;SDS011;7922;43.622;1.476;2022-12-24T02:37:12;15.13;;;11.80;;
15645;SDS011;7922;43.622;1.476;2022-12-24T02:42:11;20.10;;;12.83;;
15645;SDS011;7922;43.622;1.476;2022-12-24T02:44:41;16.70;;;12.13;;
15645;SDS011;7922;43.622;1.476;2022-12-24T02:47:08;15.10;;;13.50;;
15645;SDS011;7922;43.622;1.476;2022-12-24T02:49:35;15.27;;;12.67;;
15645;SDS011;7922;43.622;1.476;2022-12-24T02:52:00;18.50;;;12.80;;
15645;SDS011;7922;43.622;1.476;2022-12-24T02:54:26;16.10;;;12.37;;
15645;SDS011;7922;43.622;1.476;2022-12-24T03:07:43;17.33;;;13.00;;
15645;SDS011;7922;43.622;1.476;2022-12-24T03:12:53;20.83;;;13.17;;
15645;SDS011;7922;43.622;1.476;2022-12-24T03:15:22;15.83;;;12.93;;
15645;SDS011;7922;43.622;1.476;2022-12-24T03:17:51;18.43;;;13.93;;
15645;SDS011;7922;43.622;1.476;2022-12-24T03:20:20;16.40;;;12.80;;
15645;SDS011;7922;43.622;1.476;2022-12-24T03:22:47;15.70;;;11.90;;
15645;SDS011;7922;43.622;1.476;2022-12-24T03:25:12;15.30;;;12.97;;
15645;SDS011;7922;43.622;1.476;2022-12-24T03:27:38;15.83;;;13.30;;
15645;SDS011;7922;43.622;1.476;2022-12-24T03:30:07;15.73;;;12.50;;
15645;SDS011;7922;43.622;1.476;2022-12-24T03:32:34;14.77;;;13.00;;
15645;SDS011;7922;43.622;1.476;2022-12-24T03:34:59;16.30;;;11.93;;
15645;SDS011;7922;43.622;1.476;2022-12-24T03:37:25;16.97;;;12.27;;
15645;SDS011;7922;43.622;1.476;2022-12-24T03:39:50;14.53;;;12.17;;
15645;SDS011;7922;43.622;1.476;2022-12-24T03:42:15;14.00;;;12.30;;
15645;SDS011;7922;43.622;1.476;2022-12-24T03:44:41;14.90;;;12.40;;
15645;SDS011;7922;43.622;1.476;2022-12-24T03:47:06;14.27;;;12.13;;
15645;SDS011;7922;43.622;1.476;2022-12-24T03:49:31;14.80;;;11.73;;
15645;SDS011;7922;43.622;1.476;2022-12-24T03:51:57;15.40;;;12.07;;
15645;SDS011;7922;43.622;1.476;2022-12-24T03:54:22;15.73;;;13.27;;
15645;SDS011;7922;43.622;1.476;2022-12-24T03:56:47;14.43;;;12.60;;
15645;SDS011;7922;43.622;1.476;2022-12-24T03:59:13;13.00;;;11.70;;
15645;SDS011;7922;43.622;1.476;2022-12-24T04:01:38;13.90;;;11.97;;
15645;SDS011;7922;43.622;1.476;2022-12-24T04:04:03;14.33;;;11.70;;
15645;SDS011;7922;43.622;1.476;2022-12-24T04:06:29;15.80;;;11.80;;
15645;SDS011;7922;43.622;1.476;2022-12-24T04:08:54;14.43;;;11.90;;
15645;SDS011;7922;43.622;1.476;2022-12-24T04:11:19;14.53;;;11.30;;
15645;SDS011;7922;43.622;1.476;2022-12-24T04:13:44;13.57;;;11.33;;
15645;SDS011;7922;43.622;1.476;2022-12-24T04:16:11;14.00;;;12.10;;
15645;SDS011;7922;43.622;1.476;2022-12-24T04:18:40;15.73;;;11.50;;
15645;SDS011;7922;43.622;1.476;2022-12-24T04:21:06;13.47;;;11.40;;
15645;SDS011;7922;43.622;1.476;2022-12-24T04:23:33;13.53;;;11.37;;
15645;SDS011;7922;43.622;1.476;2022-12-24T04:26:00;14.13;;;11.30;;
15645;SDS011;7922;43.622;1.476;2022-12-24T04:28:27;12.13;;;10.60;;
15645;SDS011;7922;43.622;1.476;2022-12-24T04:30:56;10.90;;;9.70;;
15645;SDS011;7922;43.622;1.476;2022-12-24T04:33:25;12.93;;;11.10;;
15645;SDS011;7922;43.622;1.476;2022-12-24T04:35:50;13.50;;;10.70;;
15645;SDS011;7922;43.622;1.476;2022-12-24T04:38:16;12.80;;;11.43;;
15645;SDS011;7922;43.622;1.476;2022-12-24T04:40:41;12.67;;;10.47;;
15645;SDS011;7922;43.622;1.476;2022-12-24T04:43:06;13.67;;;11.63;;
15645;SDS011;7922;43.622;1.476;2022-12-24T04:45:31;13.50;;;11.03;;
15645;SDS011;7922;43.622;1.476;2022-12-24T04:47:57;13.23;;;11.07;;
15645;SDS011;7922;43.622;1.476;2022-12-24T04:50:22;14.50;;;12.40;;
15645;SDS011;7922;43.622;1.476;2022-12-24T04:52:47;13.83;;;12.23;;
15645;SDS011;7922;43.622;1.476;2022-12-24T04:55:13;14.97;;;11.97;;
15645;SDS011;7922;43.622;1.476;2022-12-24T04:57:38;13.90;;;11.70;;
15645;SDS011;7922;43.622;1.476;2022-12-24T05:00:04;13.27;;;11.47;;
15645;SDS011;7922;43.622;1.476;2022-12-24T05:02:30;14.77;;;11.43;;
15645;SDS011;7922;43.622;1.476;2022-12-24T05:04:56;13.63;;;11.80;;
15645;SDS011;7922;43.622;1.476;2022-12-24T05:07:21;14.17;;;10.63;;
15645;SDS011;7922;43.622;1.476;2022-12-24T05:09:46;13.43;;;11.53;;
15645;SDS011;7922;43.622;1.476;2022-12-24T05:12:11;15.70;;;11.47;;
15645;SDS011;7922;43.622;1.476;2022-12-24T05:14:37;13.57;;;10.83;;
15645;SDS011;7922;43.622;1.476;2022-12-24T05:17:03;16.77;;;10.67;;
15645;SDS011;7922;43.622;1.476;2022-12-24T05:19:28;12.07;;;10.77;;
15645;SDS011;7922;43.622;1.476;2022-12-24T05:21:54;14.30;;;10.93;;
15645;SDS011;7922;43.622;1.476;2022-12-24T05:24:19;12.70;;;9.93;;
15645;SDS011;7922;43.622;1.476;2022-12-24T05:26:45;14.20;;;10.40;;
15645;SDS011;7922;43.622;1.476;2022-12-24T05:29:13;11.87;;;10.33;;
15645;SDS011;7922;43.622;1.476;2022-12-24T05:31:39;12.50;;;10.00;;
15645;SDS011;7922;43.622;1.476;2022-12-24T05:34:05;13.90;;;9.63;;
15645;SDS011;7922;43.622;1.476;2022-12-24T05:36:31;11.90;;;10.30;;
15645;SDS011;7922;43.622;1.476;2022-12-24T05:38:57;13.13;;;10.60;;
15645;SDS011;7922;43.622;1.476;2022-12-24T05:41:22;12.37;;;10.13;;
15645;SDS011;7922;43.622;1.476;2022-12-24T05:43:47;13.47;;;10.60;;
15645;SDS011;7922;43.622;1.476;2022-12-24T05:46:13;10.63;;;9.50;;
15645;SDS011;7922;43.622;1.476;2022-12-24T05:48:40;13.33;;;10.07;;
15645;SDS011;7922;43.622;1.476;2022-12-24T05:51:06;10.90;;;9.73;;
15645;SDS011;7922;43.622;1.476;2022-12-24T05:53:32;10.27;;;9.07;;
15645;SDS011;7922;43.622;1.476;2022-12-24T05:56:08;10.97;;;9.60;;
15645;SDS011;7922;43.622;1.476;2022-12-24T05:58:35;12.57;;;9.70;;
15645;SDS011;7922;43.622;1.476;2022-12-24T06:01:01;13.50;;;9.50;;
15645;SDS011;7922;43.622;1.476;2022-12-24T06:03:28;11.10;;;9.60;;
15645;SDS011;7922;43.622;1.476;2022-12-24T06:06:16;11.07;;;9.97;;
15645;SDS011;7922;43.622;1.476;2022-12-24T06:08:41;11.00;;;9.60;;
15645;SDS011;7922;43.622;1.476;2022-12-24T06:11:07;10.67;;;9.57;;
15645;SDS011;7922;43.622;1.476;2022-12-24T06:13:34;11.47;;;10.10;;
15645;SDS011;7922;43.622;1.476;2022-12-24T06:16:00;9.87;;;8.87;;
15645;SDS011;7922;43.622;1.476;2022-12-24T06:18:27;10.37;;;9.27;;
15645;SDS011;7922;43.622;1.476;2022-12-24T06:20:54;11.27;;;9.50;;
15645;SDS011;7922;43.622;1.476;2022-12-24T06:23:20;12.27;;;9.20;;
15645;SDS011;7922;43.622;1.476;2022-12-24T06:25:46;12.37;;;9.10;;
15645;SDS011;7922;43.622;1.476;2022-12-24T06:28:12;9.97;;;8.53;;
15645;SDS011;7922;43.622;1.476;2022-12-24T06:30:37;12.63;;;9.27;;
15645;SDS011;7922;43.622;1.476;2022-12-24T06:33:03;11.93;;;9.00;;
15645;SDS011;7922;43.622;1.476;2022-12-24T06:35:29;11.37;;;9.60;;
15645;SDS011;7922;43.622;1.476;2022-12-24T06:37:55;10.00;;;8.50;;
15645;SDS011;7922;43.622;1.476;2022-12-24T06:40:20;10.43;;;8.97;;
15645;SDS011;7922;43.622;1.476;2022-12-24T06:42:46;11.80;;;9.77;;
15645;SDS011;7922;43.622;1.476;2022-12-24T06:45:11;10.50;;;9.07;;
15645;SDS011;7922;43.622;1.476;2022-12-24T06:47:36;10.77;;;9.53;;
15645;SDS011;7922;43.622;1.476;2022-12-24T06:50:02;12.30;;;9.20;;
15645;SDS011;7922;43.622;1.476;2022-12-24T06:52:27;12.00;;;9.50;;
15645;SDS011;7922;43.622;1.476;2022-12-24T06:54:52;13.47;;;10.00;;
15645;SDS011;7922;43.622;1.476;2022-12-24T06:57:18;12.53;;;9.47;;
15645;SDS011;7922;43.622;1.476;2022-12-24T06:59:43;10.67;;;8.90;;
15645;SDS011;7922;43.622;1.476;2022-12-24T07:02:08;11.87;;;8.93;;
15645;SDS011;7922;43.622;1.476;2022-12-24T07:04:34;14.07;;;9.07;;
15645;SDS011;7922;43.622;1.476;2022-12-24T07:06:59;10.73;;;9.03;;
15645;SDS011;7922;43.622;1.476;2022-12-24T07:09:25;13.50;;;9.20;;
15645;SDS011;7922;43.622;1.476;2022-12-24T07:11:50;11.30;;;9.03;;
15645;SDS011;7922;43.622;1.476;2022-12-24T07:14:15;17.20;;;10.10;;
15645;SDS011;7922;43.622;1.476;2022-12-24T07:16:40;12.77;;;9.00;;
15645;SDS011;7922;43.622;1.476;2022-12-24T07:19:06;9.97;;;8.07;;
15645;SDS011;7922;43.622;1.476;2022-12-24T07:21:31;11.23;;;8.53;;
15645;SDS011;7922;43.622;1.476;2022-12-24T07:23:56;10.90;;;8.90;;
15645;SDS011;7922;43.622;1.476;2022-12-24T07:26:21;10.43;;;8.57;;
15645;SDS011;7922;43.622;1.476;2022-12-24T07:28:47;11.00;;;9.23;;
15645;SDS011;7922;43.622;1.476;2022-12-24T07:31:12;12.47;;;9.50;;
15645;SDS011;7922;43.622;1.476;2022-12-24T07:33:37;11.83;;;9.33;;
15645;SDS011;7922;43.622;1.476;2022-12-24T07:36:04;11.40;;;9.23;;
15645;SDS011;7922;43.622;1.476;2022-12-24T07:38:30;10.63;;;9.52;;
15645;SDS011;7922;43.622;1.476;2022-12-24T07:40:56;9.77;;;8.27;;
15645;SDS011;7922;43.622;1.476;2022-12-24T07:43:21;10.93;;;8.90;;
15645;SDS011;7922;43.622;1.476;2022-12-24T07:45:46;10.73;;;9.63;;
15645;SDS011;7922;43.622;1.476;2022-12-24T07:48:12;11.30;;;9.17;;
15645;SDS011;7922;43.622;1.476;2022-12-24T07:50:37;9.50;;;8.50;;
15645;SDS011;7922;43.622;1.476;2022-12-24T07:53:02;10.80;;;9.70;;
15645;SDS011;7922;43.622;1.476;2022-12-24T07:55:28;11.87;;;9.23;;
15645;SDS011;7922;43.622;1.476;2022-12-24T07:57:53;9.50;;;8.50;;
15645;SDS011;7922;43.622;1.476;2022-12-24T08:00:18;9.47;;;8.50;;
15645;SDS011;7922;43.622;1.476;2022-12-24T08:02:44;13.43;;;10.03;;
15645;SDS011;7922;43.622;1.476;2022-12-24T08:05:09;12.30;;;9.37;;
15645;SDS011;7922;43.622;1.476;2022-12-24T08:07:34;10.87;;;8.87;;
15645;SDS011;7922;43.622;1.476;2022-12-24T08:10:00;10.70;;;9.17;;
15645;SDS011;7922;43.622;1.476;2022-12-24T08:12:25;11.60;;;8.40;;
15645;SDS011;7922;43.622;1.476;2022-12-24T08:14:50;9.57;;;7.67;;
15645;SDS011;7922;43.622;1.476;2022-12-24T08:17:16;10.20;;;9.20;;
15645;SDS011;7922;43.622;1.476;2022-12-24T08:19:41;10.53;;;8.77;;
15645;SDS011;7922;43.622;1.476;2022-12-24T08:22:06;11.10;;;8.40;;
15645;SDS011;7922;43.622;1.476;2022-12-24T08:24:31;9.70;;;8.70;;
15645;SDS011;7922;43.622;1.476;2022-12-24T08:26:57;10.27;;;9.17;;
15645;SDS011;7922;43.622;1.476;2022-12-24T08:29:22;12.83;;;9.13;;
15645;SDS011;7922;43.622;1.476;2022-12-24T08:31:47;10.33;;;8.57;;
15645;SDS011;7922;43.622;1.476;2022-12-24T08:34:12;9.70;;;8.70;;
15645;SDS011;7922;43.622;1.476;2022-12-24T08:36:38;10.73;;;8.47;;
15645;SDS011;7922;43.622;1.476;2022-12-24T08:39:03;11.37;;;8.10;;
15645;SDS011;7922;43.622;1.476;2022-12-24T08:41:29;9.20;;;8.30;;
15645;SDS011;7922;43.622;1.476;2022-12-24T08:43:55;10.33;;;8.20;;
15645;SDS011;7922;43.622;1.476;2022-12-24T08:46:20;8.87;;;7.90;;
15645;SDS011;7922;43.622;1.476;2022-12-24T08:48:46;10.03;;;7.87;;
15645;SDS011;7922;43.622;1.476;2022-12-24T08:51:11;9.23;;;8.13;;
15645;SDS011;7922;43.622;1.476;2022-12-24T08:53:36;8.60;;;7.80;;
15645;SDS011;7922;43.622;1.476;2022-12-24T08:56:07;9.87;;;7.83;;
15645;SDS011;7922;43.622;1.476;2022-12-24T08:58:33;9.83;;;8.07;;
15645;SDS011;7922;43.622;1.476;2022-12-24T09:00:59;10.63;;;7.80;;
15645;SDS011;7922;43.622;1.476;2022-12-24T09:03:24;11.00;;;9.77;;
15645;SDS011;7922;43.622;1.476;2022-12-24T09:05:50;17.37;;;11.70;;
15645;SDS011;7922;43.622;1.476;2022-12-24T09:08:15;11.07;;;9.53;;
15645;SDS011;7922;43.622;1.476;2022-12-24T09:10:41;9.57;;;8.50;;
15645;SDS011;7922;43.622;1.476;2022-12-24T09:13:06;9.30;;;7.90;;
15645;SDS011;7922;43.622;1.476;2022-12-24T09:15:31;8.47;;;7.60;;
15645;SDS011;7922;43.622;1.476;2022-12-24T09:17:57;11.00;;;7.97;;
15645;SDS011;7922;43.622;1.476;2022-12-24T09:20:22;8.93;;;7.57;;
15645;SDS011;7922;43.622;1.476;2022-12-24T09:22:47;8.10;;;7.00;;
15645;SDS011;7922;43.622;1.476;2022-12-24T09:25:13;9.03;;;7.43;;
15645;SDS011;7922;43.622;1.476;2022-12-24T09:27:38;11.10;;;7.97;;
15645;SDS011;7922;43.622;1.476;2022-12-24T09:30:04;15.03;;;12.90;;
15645;SDS011;7922;43.622;1.476;2022-12-24T09:32:30;18.57;;;16.57;;
15645;SDS011;7922;43.622;1.476;2022-12-24T09:34:55;18.10;;;15.77;;
15645;SDS011;7922;43.622;1.476;2022-12-24T09:37:21;16.80;;;14.90;;
15645;SDS011;7922;43.622;1.476;2022-12-24T09:39:46;13.47;;;9.60;;
15645;SDS011;7922;43.622;1.476;2022-12-24T09:44:45;8.37;;;7.40;;
15645;SDS011;7922;43.622;1.476;2022-12-24T09:47:35;10.90;;;8.23;;
15645;SDS011;7922;43.622;1.476;2022-12-24T09:50:01;9.67;;;8.63;;
15645;SDS011;7922;43.622;1.476;2022-12-24T09:52:29;12.13;;;8.47;;
15645;SDS011;7922;43.622;1.476;2022-12-24T09:55:13;10.10;;;8.20;;
15645;SDS011;7922;43.622;1.476;2022-12-24T09:57:44;9.10;;;7.90;;
15645;SDS011;7922;43.622;1.476;2022-12-24T10:00:21;8.40;;;7.50;;
15645;SDS011;7922;43.622;1.476;2022-12-24T10:02:48;10.07;;;8.63;;
15645;SDS011;7922;43.622;1.476;2022-12-24T10:05:14;8.60;;;7.70;;
15645;SDS011;7922;43.622;1.476;2022-12-24T10:07:47;10.00;;;9.00;;
15645;SDS011;7922;43.622;1.476;2022-12-24T10:16:27;10.23;;;9.13;;
15645;SDS011;7922;43.622;1.476;2022-12-24T10:19:09;12.70;;;9.63;;
15645;SDS011;7922;43.622;1.476;2022-12-24T10:24:15;12.10;;;10.13;;
15645;SDS011;7922;43.622;1.476;2022-12-24T10:26:51;14.77;;;9.47;;
15645;SDS011;7922;43.622;1.476;2022-12-24T10:29:22;12.83;;;9.10;;
15645;SDS011;7922;43.622;1.476;2022-12-24T10:34:37;11.33;;;9.57;;
15645;SDS011;7922;43.622;1.476;2022-12-24T10:37:14;10.40;;;9.40;;
15645;SDS011;7922;43.622;1.476;2022-12-24T10:39:41;12.53;;;8.80;;
15645;SDS011;7922;43.622;1.476;2022-12-24T10:42:07;9.60;;;8.47;;
15645;SDS011;7922;43.622;1.476;2022-12-24T10:44:33;12.97;;;8.70;;
15645;SDS011;7922;43.622;1.476;2022-12-24T10:46:58;11.47;;;9.13;;
15645;SDS011;7922;43.622;1.476;2022-12-24T10:52:12;9.10;;;7.57;;
15645;SDS011;7922;43.622;1.476;2022-12-24T10:55:03;8.63;;;7.73;;
15645;SDS011;7922;43.622;1.476;2022-12-24T10:57:34;10.17;;;8.67;;
15645;SDS011;7922;43.622;1.476;2022-12-24T11:00:00;10.10;;;7.33;;
15645;SDS011;7922;43.622;1.476;2022-12-24T11:04:57;10.43;;;8.17;;
15645;SDS011;7922;43.622;1.476;2022-12-24T11:07:23;10.97;;;9.70;;
15645;SDS011;7922;43.622;1.476;2022-12-24T11:09:59;10.37;;;9.13;;
15645;SDS011;7922;43.622;1.476;2022-12-24T11:12:27;11.80;;;10.00;;
15645;SDS011;7922;43.622;1.476;2022-12-24T11:14:58;10.47;;;9.10;;
15645;SDS011;7922;43.622;1.476;2022-12-24T11:17:28;10.27;;;8.57;;
15645;SDS011;7922;43.622;1.476;2022-12-24T11:19:54;8.13;;;7.13;;
15645;SDS011;7922;43.622;1.476;2022-12-24T11:22:21;7.70;;;6.30;;
15645;SDS011;7922;43.622;1.476;2022-12-24T11:27:50;8.20;;;5.60;;
15645;SDS011;7922;43.622;1.476;2022-12-24T11:32:41;9.20;;;6.27;;
15645;SDS011;7922;43.622;1.476;2022-12-24T11:35:11;7.43;;;5.90;;
15645;SDS011;7922;43.622;1.476;2022-12-24T11:37:47;6.97;;;5.50;;
15645;SDS011;7922;43.622;1.476;2022-12-24T11:40:20;12.17;;;7.60;;
15645;SDS011;7922;43.622;1.476;2022-12-24T11:42:46;7.63;;;6.07;;
15645;SDS011;7922;43.622;1.476;2022-12-24T11:45:22;8.70;;;6.67;;
15645;SDS011;7922;43.622;1.476;2022-12-24T11:47:50;7.80;;;5.93;;
15645;SDS011;7922;43.622;1.476;2022-12-24T11:50:34;7.40;;;5.23;;
15645;SDS011;7922;43.622;1.476;2022-12-24T11:55:44;7.63;;;5.77;;
15645;SDS011;7922;43.622;1.476;2022-12-24T12:04:02;5.47;;;4.80;;
15645;SDS011;7922;43.622;1.476;2022-12-24T12:09:21;5.13;;;3.90;;
15645;SDS011;7922;43.622;1.476;2022-12-24T12:11:52;5.57;;;3.77;;
15645;SDS011;7922;43.622;1.476;2022-12-24T12:14:24;5.53;;;4.20;;
15645;SDS011;7922;43.622;1.476;2022-12-24T12:16:56;5.10;;;3.90;;
15645;SDS011;7922;43.622;1.476;2022-12-24T12:19:24;5.97;;;3.90;;
15645;SDS011;7922;43.622;1.476;2022-12-24T12:21:52;4.27;;;3.33;;
15645;SDS011;7922;43.622;1.476;2022-12-24T12:29:44;6.17;;;3.73;;
15645;SDS011;7922;43.622;1.476;2022-12-24T12:32:37;5.07;;;3.90;;
15645;SDS011;7922;43.622;1.476;2022-12-24T12:35:22;4.33;;;2.90;;
15645;SDS011;7922;43.622;1.476;2022-12-24T12:38:00;4.20;;;3.17;;
15645;SDS011;7922;43.622;1.476;2022-12-24T12:48:45;6.70;;;3.23;;
15645;SDS011;7922;43.622;1.476;2022-12-24T12:56:47;4.87;;;3.27;;
15645;SDS011;7922;43.622;1.476;2022-12-24T13:20:30;3.37;;;2.20;;
15645;SDS011;7922;43.622;1.476;2022-12-24T13:22:58;4.73;;;2.80;;
15645;SDS011;7922;43.622;1.476;2022-12-24T13:25:41;2.63;;;2.27;;
15645;SDS011;7922;43.622;1.476;2022-12-24T13:30:41;5.10;;;2.50;;
15645;SDS011;7922;43.622;1.476;2022-12-24T13:33:11;3.03;;;2.27;;
15645;SDS011;7922;43.622;1.476;2022-12-24T13:36:01;2.03;;;1.90;;
15645;SDS011;7922;43.622;1.476;2022-12-24T13:40:53;3.80;;;1.90;;
15645;SDS011;7922;43.622;1.476;2022-12-24T13:43:19;2.93;;;2.40;;
15645;SDS011;7922;43.622;1.476;2022-12-24T13:45:46;3.50;;;2.33;;
15645;SDS011;7922;43.622;1.476;2022-12-24T13:48:29;3.00;;;2.13;;
15645;SDS011;7922;43.622;1.476;2022-12-24T13:51:00;2.50;;;2.30;;
15645;SDS011;7922;43.622;1.476;2022-12-24T13:53:42;3.50;;;2.47;;
15645;SDS011;7922;43.622;1.476;2022-12-24T13:56:09;2.70;;;2.00;;
15645;SDS011;7922;43.622;1.476;2022-12-24T13:59:10;5.23;;;2.80;;
15645;SDS011;7922;43.622;1.476;2022-12-24T14:01:41;3.73;;;2.30;;
15645;SDS011;7922;43.622;1.476;2022-12-24T14:04:08;3.97;;;2.30;;
15645;SDS011;7922;43.622;1.476;2022-12-24T14:06:39;3.87;;;2.33;;
15645;SDS011;7922;43.622;1.476;2022-12-24T14:09:15;2.43;;;2.23;;
15645;SDS011;7922;43.622;1.476;2022-12-24T14:14:33;3.03;;;2.10;;
15645;SDS011;7922;43.622;1.476;2022-12-24T14:19:46;3.00;;;2.27;;
15645;SDS011;7922;43.622;1.476;2022-12-24T14:22:29;4.07;;;2.40;;
15645;SDS011;7922;43.622;1.476;2022-12-24T14:25:01;4.80;;;2.53;;
15645;SDS011;7922;43.622;1.476;2022-12-24T14:27:43;5.03;;;2.57;;
15645;SDS011;7922;43.622;1.476;2022-12-24T14:32:46;2.73;;;2.13;;
15645;SDS011;7922;43.622;1.476;2022-12-24T14:37:37;4.37;;;2.50;;
15645;SDS011;7922;43.622;1.476;2022-12-24T14:40:06;4.10;;;2.77;;
15645;SDS011;7922;43.622;1.476;2022-12-24T14:42:55;4.60;;;2.80;;
15645;SDS011;7922;43.622;1.476;2022-12-24T14:45:32;3.43;;;2.67;;
15645;SDS011;7922;43.622;1.476;2022-12-24T14:48:10;3.67;;;2.80;;
15645;SDS011;7922;43.622;1.476;2022-12-24T14:50:54;4.07;;;2.60;;
15645;SDS011;7922;43.622;1.476;2022-12-24T14:56:15;4.03;;;2.30;;
15645;SDS011;7922;43.622;1.476;2022-12-24T14:58:45;3.03;;;2.47;;
15645;SDS011;7922;43.622;1.476;2022-12-24T15:06:52;3.53;;;2.70;;
15645;SDS011;7922;43.622;1.476;2022-12-24T15:09:20;4.30;;;2.50;;
15645;SDS011;7922;43.622;1.476;2022-12-24T15:11:50;2.50;;;2.27;;
15645;SDS011;7922;43.622;1.476;2022-12-24T15:14:17;3.67;;;2.40;;
15645;SDS011;7922;43.622;1.476;2022-12-24T15:16:49;4.07;;;2.80;;
15645;SDS011;7922;43.622;1.476;2022-12-24T15:19:20;4.07;;;2.20;;
15645;SDS011;7922;43.622;1.476;2022-12-24T15:21:48;3.93;;;2.70;;
15645;SDS011;7922;43.622;1.476;2022-12-24T15:26:50;2.70;;;2.50;;
15645;SDS011;7922;43.622;1.476;2022-12-24T15:29:19;4.77;;;2.40;;
15645;SDS011;7922;43.622;1.476;2022-12-24T15:31:55;3.40;;;2.10;;
15645;SDS011;7922;43.622;1.476;2022-12-24T15:34:28;3.30;;;2.20;;
15645;SDS011;7922;43.622;1.476;2022-12-24T15:37:04;3.33;;;2.53;;
15645;SDS011;7922;43.622;1.476;2022-12-24T15:39:31;3.57;;;2.60;;
15645;SDS011;7922;43.622;1.476;2022-12-24T15:41:57;4.03;;;2.67;;
15645;SDS011;7922;43.622;1.476;2022-12-24T15:44:22;3.20;;;2.90;;
15645;SDS011;7922;43.622;1.476;2022-12-24T15:46:47;3.13;;;2.57;;
15645;SDS011;7922;43.622;1.476;2022-12-24T15:49:13;5.00;;;2.80;;
15645;SDS011;7922;43.622;1.476;2022-12-24T15:51:40;8.87;;;2.80;;
15645;SDS011;7922;43.622;1.476;2022-12-24T15:54:06;2.80;;;2.60;;
15645;SDS011;7922;43.622;1.476;2022-12-24T15:56:37;3.47;;;3.13;;
15645;SDS011;7922;43.622;1.476;2022-12-24T16:01:41;5.17;;;2.90;;
15645;SDS011;7922;43.622;1.476;2022-12-24T16:04:14;3.23;;;2.80;;
15645;SDS011;7922;43.622;1.476;2022-12-24T16:06:56;3.50;;;2.87;;
15645;SDS011;7922;43.622;1.476;2022-12-24T16:12:19;4.90;;;3.70;;
15645;SDS011;7922;43.622;1.476;2022-12-24T16:14:49;6.13;;;3.53;;
15645;SDS011;7922;43.622;1.476;2022-12-24T16:17:23;4.70;;;3.93;;
15645;SDS011;7922;43.622;1.476;2022-12-24T16:19:50;5.77;;;4.10;;
15645;SDS011;7922;43.622;1.476;2022-12-24T16:22:18;4.90;;;4.30;;
15645;SDS011;7922;43.622;1.476;2022-12-24T16:24:45;5.07;;;4.20;;
15645;SDS011;7922;43.622;1.476;2022-12-24T16:27:11;6.70;;;3.77;;
15645;SDS011;7922;43.622;1.476;2022-12-24T16:29:37;8.73;;;3.73;;
15645;SDS011;7922;43.622;1.476;2022-12-24T16:32:02;5.33;;;4.00;;
15645;SDS011;7922;43.622;1.476;2022-12-24T16:34:28;5.07;;;4.60;;
15645;SDS011;7922;43.622;1.476;2022-12-24T16:36:55;5.47;;;4.30;;
15645;SDS011;7922;43.622;1.476;2022-12-24T16:39:22;6.33;;;4.60;;
15645;SDS011;7922;43.622;1.476;2022-12-24T16:41:52;5.17;;;4.47;;
15645;SDS011;7922;43.622;1.476;2022-12-24T16:44:19;6.93;;;4.77;;
15645;SDS011;7922;43.622;1.476;2022-12-24T16:46:44;8.47;;;5.23;;
15645;SDS011;7922;43.622;1.476;2022-12-24T16:49:11;7.70;;;5.70;;
15645;SDS011;7922;43.622;1.476;2022-12-24T16:51:40;9.27;;;6.57;;
15645;SDS011;7922;43.622;1.476;2022-12-24T16:54:06;6.37;;;5.63;;
15645;SDS011;7922;43.622;1.476;2022-12-24T16:56:32;6.10;;;5.50;;
15645;SDS011;7922;43.622;1.476;2022-12-24T16:58:57;7.70;;;5.63;;
15645;SDS011;7922;43.622;1.476;2022-12-24T17:01:22;7.47;;;5.90;;
15645;SDS011;7922;43.622;1.476;2022-12-24T17:03:47;7.13;;;6.43;;
15645;SDS011;7922;43.622;1.476;2022-12-24T17:06:13;8.43;;;6.93;;
15645;SDS011;7922;43.622;1.476;2022-12-24T17:08:38;8.13;;;6.50;;
15645;SDS011;7922;43.622;1.476;2022-12-24T17:11:03;7.30;;;5.73;;